createdAt,value
2022-10-01T00:03:54.797Z,6.90
2022-10-01T00:08:55.522Z,6.82
2022-10-01T00:13:58.681Z,6.79
2022-10-01T00:19:00.419Z,6.73
2022-10-01T00:24:03.121Z,6.76
2022-10-01T00:29:07.685Z,6.78
2022-10-01T00:34:09.126Z,6.73
2022-10-01T00:39:11.566Z,6.69
2022-10-01T00:44:35.337Z,6.66
2022-10-01T00:49:39.898Z,6.62
2022-10-01T00:54:44.994Z,6.61
2022-10-01T00:59:48.110Z,6.55
2022-10-01T01:04:49.235Z,6.59
2022-10-01T01:09:52.420Z,6.58
2022-10-01T01:15:07.534Z,6.57
2022-10-01T01:20:43.122Z,6.54
2022-10-01T01:25:49.962Z,6.56
2022-10-01T01:30:57.958Z,6.58
2022-10-01T01:36:04.507Z,6.60
2022-10-01T01:41:07.500Z,6.64
2022-10-01T01:46:12.346Z,6.59
2022-10-01T01:51:18.870Z,6.56
2022-10-01T01:56:19.646Z,6.48
2022-10-01T02:01:37.821Z,6.54
2022-10-01T02:06:57.695Z,6.53
2022-10-01T02:12:08.508Z,6.43
2022-10-01T02:17:17.595Z,6.49
2022-10-01T02:22:24.122Z,6.43
2022-10-01T02:27:30.049Z,6.43
2022-10-01T02:32:33.062Z,6.42
2022-10-01T02:37:36.645Z,6.37
2022-10-01T02:42:38.855Z,6.29
2022-10-01T02:47:45.855Z,6.28
2022-10-01T02:52:53.852Z,6.26
2022-10-01T02:57:54.700Z,6.29
2022-10-01T03:02:57.071Z,6.23
2022-10-01T03:07:57.954Z,6.22
2022-10-01T03:13:01.624Z,6.21
2022-10-01T03:18:03.753Z,6.24
2022-10-01T03:23:04.527Z,6.20
2022-10-01T03:28:05.338Z,6.21
2022-10-01T03:33:07.446Z,6.17
2022-10-01T03:38:08.300Z,6.18
2022-10-01T03:43:09.041Z,6.19
2022-10-01T03:48:11.113Z,6.14
2022-10-01T03:53:12.433Z,6.12
2022-10-01T03:58:13.266Z,6.09
2022-10-01T04:03:16.262Z,6.10
2022-10-01T04:08:20.818Z,6.20
2022-10-01T04:13:24.307Z,6.21
2022-10-01T04:18:26.435Z,6.19
2022-10-01T04:23:28.044Z,6.23
2022-10-01T04:28:29.375Z,6.23
2022-10-01T04:33:31.465Z,6.27
2022-10-01T04:38:32.595Z,6.31
2022-10-01T04:43:33.450Z,6.22
2022-10-01T04:48:35.564Z,6.22
2022-10-01T04:53:36.452Z,6.29
2022-10-01T04:58:37.782Z,6.22
2022-10-01T05:03:39.941Z,6.27
2022-10-01T05:08:40.759Z,6.36
2022-10-01T05:13:41.732Z,6.37
2022-10-01T05:18:43.974Z,6.47
2022-10-01T05:23:44.837Z,6.59
2022-10-01T05:28:45.697Z,6.76
2022-10-01T05:33:48.278Z,6.86
2022-10-01T05:38:49.569Z,6.91
2022-10-01T05:43:51.394Z,7.02
2022-10-01T05:48:53.653Z,7.19
2022-10-01T05:53:55.728Z,7.29
2022-10-01T05:58:56.678Z,7.46
2022-10-01T06:03:58.935Z,7.56
2022-10-01T06:09:00.486Z,7.60
2022-10-01T06:14:01.332Z,7.73
2022-10-01T06:19:03.766Z,7.94
2022-10-01T06:24:05.254Z,8.05
2022-10-01T06:29:06.043Z,8.23
2022-10-01T06:34:08.232Z,8.46
2022-10-01T06:39:08.994Z,8.75
2022-10-01T06:44:09.840Z,9.07
2022-10-01T06:49:12.005Z,9.29
2022-10-01T06:54:12.986Z,9.38
2022-10-01T06:59:13.768Z,10.24
2022-10-01T07:04:15.879Z,10.50
2022-10-01T07:09:16.811Z,10.73
2022-10-01T07:14:17.652Z,10.74
2022-10-01T07:19:19.755Z,10.85
2022-10-01T07:24:20.524Z,10.88
2022-10-01T07:29:21.264Z,10.92
2022-10-01T07:34:24.858Z,10.98
2022-10-01T07:39:25.962Z,11.00
2022-10-01T07:44:27.815Z,10.76
2022-10-01T07:49:29.906Z,10.64
2022-10-01T07:54:30.759Z,10.81
2022-10-01T07:59:31.675Z,11.05
2022-10-01T08:04:52.836Z,11.43
2022-10-01T08:09:53.587Z,11.68
2022-10-01T08:14:54.389Z,12.02
2022-10-01T08:19:56.602Z,12.15
2022-10-01T08:24:57.518Z,12.31
2022-10-01T08:29:58.398Z,12.39
2022-10-01T08:35:01.293Z,12.37
2022-10-01T08:40:02.564Z,12.41
2022-10-01T08:45:11.322Z,12.44
2022-10-01T08:50:24.373Z,12.22
2022-10-01T08:55:28.111Z,12.59
2022-10-01T09:00:31.979Z,12.59
2022-10-01T09:05:42.104Z,13.13
2022-10-01T09:10:46.564Z,13.56
2022-10-01T09:15:54.717Z,13.35
2022-10-01T09:20:59.663Z,13.40
2022-10-01T09:26:01.267Z,13.16
2022-10-01T09:31:13.092Z,13.06
2022-10-01T09:36:24.228Z,13.02
2022-10-01T09:41:24.990Z,13.16
2022-10-01T09:46:26.691Z,13.09
2022-10-01T09:51:39.995Z,13.03
2022-10-01T09:56:47.957Z,12.97
2022-10-01T10:01:52.762Z,13.04
2022-10-01T10:07:01.903Z,12.85
2022-10-01T10:12:03.627Z,12.69
2022-10-01T10:17:07.984Z,12.90
2022-10-01T10:22:23.257Z,13.11
2022-10-01T10:27:28.590Z,13.18
2022-10-01T10:32:29.880Z,13.22
2022-10-01T10:37:37.368Z,13.18
2022-10-01T10:42:38.809Z,13.10
2022-10-01T10:47:46.336Z,12.72
2022-10-01T10:52:48.481Z,12.30
2022-10-01T10:57:49.445Z,11.97
2022-10-01T11:02:55.618Z,11.64
2022-10-01T11:08:01.603Z,11.40
2022-10-01T11:13:24.733Z,11.18
2022-10-01T11:18:52.833Z,10.98
2022-10-01T11:24:13.113Z,10.80
2022-10-01T11:29:28.191Z,10.65
2022-10-01T11:34:56.489Z,10.56
2022-10-01T11:40:04.900Z,10.48
2022-10-01T11:45:15.214Z,10.41
2022-10-01T11:50:19.636Z,10.45
2022-10-01T11:55:43.309Z,10.44
2022-10-01T12:00:53.917Z,10.49
2022-10-01T12:05:58.949Z,10.39
2022-10-01T12:11:07.782Z,10.33
2022-10-01T12:16:17.031Z,10.31
2022-10-01T12:21:23.256Z,10.23
2022-10-01T12:26:36.030Z,10.09
2022-10-01T12:31:44.326Z,10.10
2022-10-01T12:36:57.117Z,10.06
2022-10-01T12:42:15.297Z,10.09
2022-10-01T12:47:35.189Z,10.10
2022-10-01T12:52:48.787Z,10.21
2022-10-01T12:58:01.246Z,10.33
2022-10-01T13:03:36.888Z,10.40
2022-10-01T13:08:50.147Z,10.55
2022-10-01T13:13:54.519Z,10.55
2022-10-01T13:19:03.221Z,10.45
2022-10-01T13:24:13.840Z,10.35
2022-10-01T13:29:31.459Z,10.35
2022-10-01T13:34:37.809Z,10.32
2022-10-01T13:39:42.026Z,10.29
2022-10-01T13:44:44.239Z,10.20
2022-10-01T13:49:53.486Z,10.31
2022-10-01T13:54:57.148Z,10.39
2022-10-01T14:00:07.015Z,10.39
2022-10-01T14:05:29.163Z,10.33
2022-10-01T14:10:35.980Z,10.40
2022-10-01T14:16:00.116Z,10.51
2022-10-01T14:21:10.522Z,10.52
2022-10-01T14:26:20.432Z,10.68
2022-10-01T14:31:32.704Z,10.59
2022-10-01T14:36:37.500Z,10.65
2022-10-01T14:41:38.448Z,10.71
2022-10-01T14:46:40.691Z,10.81
2022-10-01T14:51:51.501Z,10.91
2022-10-01T14:56:53.091Z,11.00
2022-10-01T15:02:02.114Z,11.23
2022-10-01T15:07:12.851Z,11.32
2022-10-01T15:12:15.009Z,11.58
2022-10-01T15:17:23.351Z,11.59
2022-10-01T15:22:27.517Z,11.80
2022-10-01T15:27:28.940Z,11.72
2022-10-01T15:32:31.294Z,12.05
2022-10-01T15:37:35.291Z,12.22
2022-10-01T15:42:37.433Z,12.27
2022-10-01T15:47:40.590Z,12.36
2022-10-01T15:52:58.143Z,12.43
2022-10-01T15:58:06.018Z,12.41
2022-10-01T16:03:20.033Z,12.48
2022-10-01T16:08:24.126Z,12.40
2022-10-01T16:13:36.348Z,12.16
2022-10-01T16:18:38.535Z,11.78
2022-10-01T16:23:43.328Z,11.58
2022-10-01T16:28:44.295Z,11.62
2022-10-01T16:33:47.049Z,11.59
2022-10-01T16:38:48.310Z,11.53
2022-10-01T16:43:49.718Z,11.42
2022-10-01T16:48:52.434Z,11.17
2022-10-01T16:53:55.427Z,11.24
2022-10-01T16:58:56.178Z,11.29
2022-10-01T17:04:06.023Z,11.28
2022-10-01T17:09:07.021Z,11.40
2022-10-01T17:14:08.820Z,11.48
2022-10-01T17:19:12.563Z,11.58
2022-10-01T17:24:13.772Z,11.49
2022-10-01T17:29:14.556Z,11.59
2022-10-01T17:34:17.593Z,11.60
2022-10-01T17:39:18.388Z,11.61
2022-10-01T17:44:19.181Z,11.69
2022-10-01T17:49:21.555Z,11.70
2022-10-01T17:54:22.327Z,11.75
2022-10-01T17:59:25.520Z,11.78
2022-10-01T18:04:30.170Z,11.77
2022-10-01T18:09:30.928Z,11.95
2022-10-01T18:14:31.936Z,11.98
2022-10-01T18:24:55.303Z,12.18
2022-10-01T18:29:56.176Z,12.21
2022-10-01T18:34:59.843Z,12.18
2022-10-01T18:40:06.720Z,12.26
2022-10-01T18:45:15.991Z,12.09
2022-10-01T18:50:25.719Z,12.03
2022-10-01T18:55:35.334Z,12.03
2022-10-01T19:00:46.099Z,11.93
2022-10-01T19:06:19.475Z,12.02
2022-10-01T19:11:32.408Z,12.08
2022-10-01T19:16:47.048Z,12.08
2022-10-01T19:22:00.330Z,12.04
2022-10-01T19:27:13.575Z,12.15
2022-10-01T19:32:18.547Z,12.07
2022-10-01T19:37:29.025Z,11.95
2022-10-01T19:42:35.400Z,11.93
2022-10-01T19:47:41.248Z,12.00
2022-10-01T19:52:45.734Z,12.01
2022-10-01T19:57:48.037Z,11.91
2022-10-01T20:02:54.529Z,11.84
2022-10-01T20:08:01.534Z,11.84
2022-10-01T20:13:17.582Z,11.73
2022-10-01T20:18:28.222Z,11.71
2022-10-01T20:23:43.213Z,11.69
2022-10-01T20:28:53.092Z,11.70
2022-10-01T20:34:03.694Z,11.74
2022-10-01T20:39:13.377Z,11.65
2022-10-01T20:44:16.826Z,11.60
2022-10-01T20:49:29.764Z,11.68
2022-10-01T20:54:36.419Z,11.64
2022-10-01T20:59:42.146Z,11.59
2022-10-01T21:04:52.067Z,11.48
2022-10-01T21:09:57.720Z,11.46
2022-10-01T21:14:58.828Z,11.42
2022-10-01T21:20:11.512Z,11.54
2022-10-01T21:25:23.237Z,11.40
2022-10-01T21:30:24.322Z,11.47
2022-10-01T21:35:32.318Z,11.42
2022-10-01T21:40:50.944Z,11.48
2022-10-01T21:46:00.651Z,11.49
2022-10-01T21:51:09.931Z,11.56
2022-10-01T21:56:39.433Z,11.67
2022-10-01T22:01:55.757Z,11.61
2022-10-01T22:07:03.133Z,11.55
2022-10-01T22:12:07.774Z,11.50
2022-10-01T22:17:14.813Z,11.51
2022-10-01T22:22:21.912Z,11.53
2022-10-01T22:27:27.729Z,11.52
2022-10-01T22:32:34.188Z,11.46
2022-10-01T22:37:39.020Z,11.38
2022-10-01T22:42:45.352Z,11.42
2022-10-01T22:48:11.933Z,11.39
2022-10-01T22:53:32.189Z,11.37
2022-10-01T22:58:59.886Z,11.37
2022-10-01T23:04:11.792Z,11.32
2022-10-01T23:09:19.246Z,11.32
2022-10-01T23:14:39.386Z,11.34
2022-10-01T23:19:48.134Z,11.20
2022-10-01T23:25:05.021Z,11.29
2022-10-01T23:30:11.875Z,11.19
2022-10-01T23:35:18.318Z,11.05
2022-10-01T23:40:22.296Z,11.08
2022-10-01T23:45:29.211Z,10.97
2022-10-01T23:50:36.062Z,10.84
2022-10-01T23:56:04.035Z,10.85
